ROTAER D-AMDT 7/21 Ver mudanças

SAO PAULO CATARINA AEROPORTO EXECUTIVO ( SBJH ) / SÃO ROQUE, SP 23 25 37S/047 09 57W
AD PUB UTC-3 IFR L21 , L26 776.33 (2547)

12 - L9(3.25) [1] , L12 - ( 2470x33 ASPH 30/F/B/X/T L14 , L15 ) - L9 [2] , L12 - 30

SBCW (CRCEA-SE)
COM -
RÁDIO CATARINA 131.800
RFFS - CAT - 5
MET - MET CIVIL –

[3] CMA 3

AIS - [3] AIS CIVIL – [3]

RMK -

CARACTERÍSTICAS FÍSICAS DAS PISTAS
  1. THR 12 deslocada em 173 metros
  2. THR 30 deslocada em 172 metros
REGULAMENTOS PARA TRÁFEGO LOCAL
  1. PRB OPS de TGL exceto para ACFT sediadas em SBJH.
DISTÂNCIA(S) DECLARADA(S)
  1.  
RWY TORA(m) TODA(m) ASDA(m) LDA(m) ALT. GEOIDAL(m) COORDENADAS
12 2298 2470 2298 2125 -3,58 S23 25 34
W047 10 35
30 2297 2470 2297 2125 -3,58 S23 25 39
W047 09 20
COMPL -
  • [1] MEHT: 55FT
  • [2] MEHT: 56FT
  • [3] Autoatendimento
TEMP (0)

Suplementos AIP (0)

NOTAM (0)

Nascer/Por do Sol

09:50

20:32


METAR

250000Z 06003KT CAVOK 16/13 Q1019=

TAF

241600Z 2418/2506 13005KT CAVOK TX24/2418Z TN12/2505Z TEMPO 2418/2421 28008KT 9999 FEW020 PROB30 2504/2506 7000 NSC RMK PGO=


Cartas (4)

IAC


SID



Rotas Preferenciais (0)


Aeródromos Próximos